Time;durP1;ratioP1;P1;durP2;ratioP2;P2;SDS_P1;SDS_P2;PMS_P1;PMS_P2;Temp;Humidity;BMP_temperature;BMP_pressure;BME280_temperature;BME280_humidity;BME280_pressure;Samples;Min_cycle;Max_cycle;Signal;HPM_P1;HPM_P2
2023/06/11 00:01:18;;;;;;;8.68;5.95;;;;;;;21.06;67.62;101198.94;5002443;28;20030;-74
2023/06/11 00:03:46;;;;;;;10.63;5.85;;;;;;;20.89;68.25;101189.94;4997976;28;20169;-73
2023/06/11 00:06:17;;;;;;;12.25;5.55;;;;;;;20.83;68.34;101201.34;4986808;28;20052;-73
2023/06/11 00:08:45;;;;;;;8.23;6.20;;;;;;;20.80;68.30;101194.69;5003772;28;20056;-73
2023/06/11 00:11:10;;;;;;;9.10;5.65;;;;;;;20.79;68.46;101190.44;5002730;28;20392;-73
2023/06/11 00:13:36;;;;;;;7.10;5.80;;;;;;;20.76;68.70;101201.41;5003132;28;20057;-73
2023/06/11 00:16:01;;;;;;;10.07;5.95;;;;;;;20.74;68.96;101199.00;5004389;28;20590;-73
2023/06/11 00:18:27;;;;;;;11.70;6.40;;;;;;;20.66;69.45;101199.22;5001859;28;20041;-73
2023/06/11 00:20:52;;;;;;;11.52;6.43;;;;;;;20.55;70.16;101200.72;5001024;28;20772;-74
2023/06/11 00:23:18;;;;;;;8.80;5.60;;;;;;;20.47;70.08;101190.41;4996369;28;20050;-74
2023/06/11 00:25:43;;;;;;;7.60;6.15;;;;;;;20.40;70.46;101193.09;4985323;28;20030;-74
2023/06/11 00:28:09;;;;;;;6.60;5.63;;;;;;;20.34;70.94;101199.22;4987243;28;20042;-74
2023/06/11 00:30:34;;;;;;;9.02;6.90;;;;;;;20.32;70.93;101195.16;4984142;28;20038;-73
2023/06/11 00:33:00;;;;;;;8.80;6.18;;;;;;;20.31;71.15;101199.63;4983096;28;20041;-73
2023/06/11 00:35:26;;;;;;;9.85;6.15;;;;;;;20.31;71.12;101196.19;4984060;28;20536;-73
2023/06/11 00:37:55;;;;;;;11.48;6.45;;;;;;;20.30;71.12;101203.25;4985585;28;20033;-73
2023/06/11 00:40:20;;;;;;;9.18;5.78;;;;;;;20.30;71.21;101195.38;5002576;28;20054;-73
2023/06/11 00:42:49;;;;;;;10.82;6.40;;;;;;;20.30;71.09;101189.31;5021278;28;20164;-73
2023/06/11 00:45:16;;;;;;;9.02;7.22;;;;;;;20.28;71.09;101192.16;4983664;28;20050;-73
2023/06/11 00:47:42;;;;;;;8.77;6.32;;;;;;;20.22;71.57;101193.00;4984048;28;20061;-73
2023/06/11 00:50:08;;;;;;;10.02;7.13;;;;;;;20.19;71.75;101190.78;4972568;28;20536;-73
2023/06/11 00:52:34;;;;;;;11.32;6.72;;;;;;;20.09;72.18;101195.69;4986060;28;20032;-73
2023/06/11 00:55:00;;;;;;;9.88;6.85;;;;;;;19.99;72.91;101198.78;4985257;28;20378;-73
2023/06/11 00:57:26;;;;;;;7.40;6.30;;;;;;;19.93;72.98;101199.59;4983320;28;20038;-73
2023/06/11 00:59:53;;;;;;;12.27;7.15;;;;;;;19.89;73.20;101196.59;4999142;28;20042;-73
2023/06/11 01:02:31;;;;;;;12.25;7.05;;;;;;;19.88;73.33;101188.91;5001355;28;20262;-73
2023/06/11 01:04:58;;;;;;;9.70;6.75;;;;;;;19.86;73.37;101197.00;4998394;28;20050;-73
2023/06/11 01:07:30;;;;;;;11.15;6.78;;;;;;;19.83;73.58;101187.69;4984496;28;20030;-73
2023/06/11 01:09:58;;;;;;;9.57;6.65;;;;;;;19.79;73.96;101193.56;4984661;28;20038;-73
2023/06/11 01:12:23;;;;;;;8.05;6.65;;;;;;;19.73;73.95;101194.41;4984124;28;20038;-74
2023/06/11 01:14:49;;;;;;;11.63;7.10;;;;;;;19.63;74.44;101192.19;4985746;28;20073;-74
2023/06/11 01:17:40;;;;;;;9.13;6.43;;;;;;;19.58;74.74;101192.00;4991214;28;20053;-73
2023/06/11 01:20:12;;;;;;;9.82;6.78;;;;;;;19.50;75.22;101187.75;4986168;28;20042;-73
2023/06/11 01:23:11;;;;;;;10.05;7.15;;;;;;;19.44;75.42;101186.75;4987966;28;20403;-73
2023/06/11 01:26:04;;;;;;;9.65;6.03;;;;;;;19.35;75.82;101195.88;5004059;28;20038;-73
2023/06/11 01:28:33;;;;;;;8.32;6.80;;;;;;;19.30;75.83;101197.50;5005315;28;20045;-73
2023/06/11 01:31:11;;;;;;;11.15;6.88;;;;;;;19.28;75.73;101202.16;5005477;28;20650;-73
2023/06/11 01:33:37;;;;;;;9.02;6.40;;;;;;;19.28;75.58;101204.78;5005500;28;20038;-73
2023/06/11 01:36:10;;;;;;;11.27;6.65;;;;;;;19.28;75.52;101200.31;5005720;28;20043;-73
2023/06/11 01:38:41;;;;;;;8.63;6.57;;;;;;;19.27;75.62;101201.34;4982814;28;20042;-73
2023/06/11 01:41:12;;;;;;;9.10;7.35;;;;;;;19.27;75.85;101206.59;4985619;28;20034;-73
2023/06/11 01:43:38;;;;;;;8.05;6.82;;;;;;;19.27;75.92;101209.25;4986234;28;20054;-73
2023/06/11 01:46:04;;;;;;;10.40;7.40;;;;;;;19.25;75.99;101206.00;4986682;28;20049;-73
2023/06/11 01:48:30;;;;;;;9.63;7.10;;;;;;;19.25;75.94;101212.06;4979870;28;20027;-73
2023/06/11 01:50:56;;;;;;;11.88;7.78;;;;;;;19.24;76.02;101214.88;4983808;28;20026;-74
2023/06/11 01:53:21;;;;;;;9.18;7.07;;;;;;;19.21;76.04;101215.28;4987424;28;20057;-73
2023/06/11 01:55:47;;;;;;;9.90;7.22;;;;;;;19.15;76.35;101211.66;4968899;28;20880;-74
2023/06/11 01:58:13;;;;;;;9.00;6.30;;;;;;;19.13;76.25;101208.41;4985397;28;20034;-73
2023/06/11 02:00:38;;;;;;;9.40;6.68;;;;;;;19.13;76.11;101212.88;4986089;28;20034;-73
2023/06/11 02:03:05;;;;;;;10.27;7.47;;;;;;;19.12;76.40;101213.88;4981832;28;20641;-72
2023/06/11 02:05:31;;;;;;;9.38;6.85;;;;;;;19.11;76.21;101215.69;4968667;28;20034;-73
2023/06/11 02:07:57;;;;;;;11.27;7.05;;;;;;;19.06;76.70;101211.06;4976403;28;20038;-74
2023/06/11 02:10:22;;;;;;;14.18;7.25;;;;;;;18.97;76.92;101212.28;4989088;28;20038;-73
2023/06/11 02:12:48;;;;;;;14.07;7.25;;;;;;;18.79;77.79;101210.19;4988348;28;20029;-73
2023/06/11 02:15:13;;;;;;;9.32;7.28;;;;;;;18.63;78.43;101213.22;4988315;28;20505;-73
2023/06/11 02:17:39;;;;;;;15.50;7.53;;;;;;;18.52;78.72;101211.97;4987093;28;20068;-73
2023/06/11 02:20:05;;;;;;;9.95;7.15;;;;;;;18.50;78.80;101221.88;4985437;28;20042;-74
2023/06/11 02:22:33;;;;;;;9.70;7.22;;;;;;;18.52;78.71;101205.91;5005300;28;20055;-74
2023/06/11 02:24:58;;;;;;;10.18;7.07;;;;;;;18.55;78.78;101216.00;5001985;28;20165;-73
2023/06/11 02:27:24;;;;;;;9.52;6.90;;;;;;;18.57;78.57;101208.72;4984837;28;20533;-74
2023/06/11 02:29:49;;;;;;;8.52;7.05;;;;;;;18.58;78.38;101211.16;4966026;28;20497;-73
2023/06/11 02:32:15;;;;;;;9.15;7.25;;;;;;;18.58;78.57;101215.63;4981157;28;20034;-74
2023/06/11 02:34:42;;;;;;;8.90;6.82;;;;;;;18.56;78.61;101215.00;4998519;28;20042;-73
2023/06/11 02:37:08;;;;;;;11.43;7.85;;;;;;;18.54;78.58;101211.78;5009931;28;20044;-73
2023/06/11 02:39:34;;;;;;;11.15;7.93;;;;;;;18.52;78.56;101209.34;5005185;28;20049;-73
2023/06/11 02:42:00;;;;;;;9.70;7.57;;;;;;;18.49;78.65;101212.34;5008531;28;20113;-73
2023/06/11 02:44:25;;;;;;;11.30;7.72;;;;;;;18.46;79.01;101210.16;5005661;28;20065;-73
2023/06/11 02:46:51;;;;;;;12.70;7.97;;;;;;;18.46;78.63;101207.53;5004768;28;20960;-73
2023/06/11 02:49:17;;;;;;;12.35;8.20;;;;;;;18.45;78.62;101211.94;4993212;28;20046;-73
2023/06/11 02:51:42;;;;;;;11.50;8.25;;;;;;;18.44;78.36;101207.72;4986514;28;20030;-73
2023/06/11 02:54:08;;;;;;;9.90;7.43;;;;;;;18.44;78.31;101205.09;4986717;28;20053;-73
2023/06/11 02:56:33;;;;;;;11.15;7.35;;;;;;;18.42;78.49;101207.09;4972133;28;20033;-73
2023/06/11 02:58:59;;;;;;;10.07;7.47;;;;;;;18.41;78.81;101213.34;4989447;28;20057;-73
2023/06/11 03:01:24;;;;;;;9.48;7.50;;;;;;;18.37;78.99;101216.56;4985486;28;20035;-73
2023/06/11 03:03:50;;;;;;;10.57;7.40;;;;;;;18.35;79.30;101215.97;4995334;28;20058;-73
2023/06/11 03:06:22;;;;;;;10.77;7.33;;;;;;;18.30;79.46;101211.28;4987049;28;20125;-73
2023/06/11 03:08:48;;;;;;;8.65;7.07;;;;;;;18.26;79.70;101212.69;4986473;28;20043;-73
2023/06/11 03:11:14;;;;;;;12.40;8.32;;;;;;;18.18;79.97;101224.19;4986494;28;20030;-73
2023/06/11 03:13:44;;;;;;;9.52;7.82;;;;;;;18.05;80.54;101218.88;4985785;28;20042;-73
2023/06/11 03:16:10;;;;;;;13.50;8.10;;;;;;;17.93;80.63;101223.84;4985937;28;20053;-73
2023/06/11 03:18:39;;;;;;;14.13;7.95;;;;;;;17.87;80.96;101222.81;4990258;28;20050;-73
2023/06/11 03:21:05;;;;;;;12.02;7.18;;;;;;;17.84;81.01;101219.75;5018705;28;20941;-73
2023/06/11 03:23:30;;;;;;;11.13;7.40;;;;;;;17.82;81.29;101222.56;5003597;28;20042;-73
2023/06/11 03:26:02;;;;;;;11.38;7.50;;;;;;;17.83;81.20;101218.94;5006432;28;20037;-73
2023/06/11 03:28:33;;;;;;;9.68;7.40;;;;;;;17.85;80.87;101221.41;5018846;28;20045;-74
2023/06/11 03:31:00;;;;;;;10.10;7.28;;;;;;;17.87;80.70;101220.19;5004714;28;20029;-73
2023/06/11 03:33:25;;;;;;;10.05;7.43;;;;;;;17.88;80.84;101216.56;5003169;28;20764;-73
2023/06/11 03:35:51;;;;;;;10.57;7.15;;;;;;;17.91;80.76;101220.59;4987670;28;20038;-73
2023/06/11 03:38:22;;;;;;;8.57;7.07;;;;;;;17.94;80.84;101217.59;4999373;28;20039;-73
2023/06/11 03:40:48;;;;;;;11.40;7.57;;;;;;;17.94;80.81;101220.22;4982774;28;20026;-73
2023/06/11 03:43:14;;;;;;;10.73;7.85;;;;;;;17.95;80.66;101231.53;4984080;28;20564;-72
2023/06/11 03:45:41;;;;;;;9.48;7.35;;;;;;;17.95;80.51;101229.75;4985022;28;20541;-73
2023/06/11 03:48:08;;;;;;;10.98;7.80;;;;;;;17.92;80.70;101227.50;4984424;28;20026;-73
2023/06/11 03:50:34;;;;;;;10.13;7.88;;;;;;;17.89;80.83;101228.69;4981693;28;20576;-73
2023/06/11 03:53:00;;;;;;;10.10;7.90;;;;;;;17.82;81.45;101243.56;4981965;28;20488;-75
2023/06/11 03:55:26;;;;;;;11.82;7.15;;;;;;;17.76;81.92;101249.53;4981025;28;20069;-73
2023/06/11 03:57:51;;;;;;;10.43;6.95;;;;;;;17.69;82.45;101243.47;4994012;28;20062;-73
2023/06/11 04:00:17;;;;;;;11.95;8.30;;;;;;;17.63;82.80;101254.72;4994682;28;20041;-73
2023/06/11 04:02:43;;;;;;;12.73;7.60;;;;;;;17.60;83.18;101253.28;4988507;28;20033;-73
2023/06/11 04:05:16;;;;;;;10.18;7.43;;;;;;;17.63;83.14;101249.47;4987611;28;20636;-73
2023/06/11 04:07:47;;;;;;;13.50;8.05;;;;;;;17.68;82.80;101247.88;4985008;28;20134;-73
2023/06/11 04:10:13;;;;;;;9.13;7.00;;;;;;;17.72;82.70;101250.94;4983653;28;20149;-72
2023/06/11 04:12:38;;;;;;;13.50;7.60;;;;;;;17.75;82.38;101245.31;4984921;28;20081;-73
2023/06/11 04:15:05;;;;;;;9.70;8.02;;;;;;;17.79;82.39;101241.31;5001982;28;21391;-73
2023/06/11 04:17:31;;;;;;;10.43;7.88;;;;;;;17.83;82.21;101237.28;5004820;28;20034;-73
2023/06/11 04:19:57;;;;;;;10.30;7.45;;;;;;;17.86;82.04;101239.56;5003195;28;20382;-73
2023/06/11 04:22:23;;;;;;;9.25;7.18;;;;;;;17.88;82.25;101244.63;5000691;28;20037;-74
2023/06/11 04:24:48;;;;;;;10.98;6.97;;;;;;;17.89;82.43;101243.59;4982798;28;20042;-73
2023/06/11 04:27:14;;;;;;;10.75;7.70;;;;;;;17.92;82.40;101240.59;4983741;28;20034;-73
2023/06/11 04:29:40;;;;;;;10.30;7.65;;;;;;;17.94;82.32;101235.97;4984302;28;20046;-73
2023/06/11 04:32:07;;;;;;;12.65;8.13;;;;;;;17.96;82.36;101241.84;4984235;28;20038;-73
2023/06/11 04:34:36;;;;;;;12.50;8.00;;;;;;;18.00;82.43;101239.63;4998661;28;20058;-73
2023/06/11 04:37:02;;;;;;;8.43;7.13;;;;;;;18.03;82.61;101241.88;5004254;28;20435;-72
2023/06/11 04:39:28;;;;;;;10.77;7.20;;;;;;;18.07;82.71;101238.66;4986589;28;20053;-73
2023/06/11 04:41:54;;;;;;;8.80;7.05;;;;;;;18.11;82.60;101233.84;5005736;28;20037;-73
2023/06/11 04:44:22;;;;;;;10.52;7.18;;;;;;;18.15;82.51;101242.94;5004779;28;20042;-73
2023/06/11 04:46:49;;;;;;;10.65;7.78;;;;;;;18.21;82.53;101236.09;5002426;28;20032;-73
2023/06/11 04:49:20;;;;;;;12.23;6.78;;;;;;;18.24;82.76;101241.75;5003024;28;20049;-73
2023/06/11 04:51:48;;;;;;;11.13;8.15;;;;;;;18.34;81.23;101237.97;4999543;28;20080;-73
2023/06/11 04:54:17;;;;;;;10.27;7.72;;;;;;;18.39;80.85;101241.63;5002349;28;20046;-73
2023/06/11 04:56:45;;;;;;;10.80;7.90;;;;;;;18.43;80.42;101236.78;5004005;28;20037;-73
2023/06/11 04:59:11;;;;;;;9.77;8.07;;;;;;;18.61;79.17;101244.09;5002420;28;20042;-73
2023/06/11 05:01:46;;;;;;;11.60;7.93;;;;;;;18.72;78.81;101242.72;4985009;28;20088;-73
2023/06/11 05:04:15;;;;;;;14.25;8.13;;;;;;;18.81;78.41;101238.91;5002081;28;20089;-73
2023/06/11 05:06:48;;;;;;;9.50;6.85;;;;;;;18.91;77.48;101241.16;4988137;28;20038;-73
2023/06/11 05:09:17;;;;;;;11.57;8.07;;;;;;;18.96;77.51;101238.75;4987270;28;20606;-73
2023/06/11 05:11:45;;;;;;;11.52;6.97;;;;;;;19.11;76.79;101244.59;4985419;28;20077;-72
2023/06/11 05:14:14;;;;;;;9.32;6.95;;;;;;;19.22;76.09;101246.63;4998205;28;20097;-72
2023/06/11 05:16:40;;;;;;;10.80;7.03;;;;;;;19.40;75.94;101246.03;4981656;28;22086;-73
2023/06/11 05:19:06;;;;;;;10.32;7.05;;;;;;;19.44;75.40;101256.94;4982137;28;20057;-73
2023/06/11 05:21:39;;;;;;;11.45;7.00;;;;;;;19.50;75.58;101252.69;4984515;28;20541;-73
2023/06/11 05:24:16;;;;;;;11.05;6.85;;;;;;;19.62;74.26;101251.84;4982579;28;20054;-73
2023/06/11 05:26:42;;;;;;;13.35;7.53;;;;;;;19.74;73.60;101251.25;4966224;28;20030;-72
2023/06/11 05:29:10;;;;;;;16.15;8.05;;;;;;;19.81;72.47;101258.13;4980870;28;20042;-73
2023/06/11 05:31:38;;;;;;;8.40;6.97;;;;;;;20.02;71.90;101258.88;4966151;28;20037;-73
2023/06/11 05:34:05;;;;;;;11.95;7.15;;;;;;;20.12;71.40;101266.34;4992990;28;20504;-73
2023/06/11 05:36:32;;;;;;;9.18;6.78;;;;;;;20.33;71.24;101265.25;5001441;28;20106;-73
2023/06/11 05:38:58;;;;;;;9.50;7.65;;;;;;;20.43;70.61;101263.75;4985864;28;20061;-72
2023/06/11 05:41:27;;;;;;;11.35;7.22;;;;;;;20.55;70.68;101257.84;4982326;28;20026;-72
2023/06/11 05:43:53;;;;;;;10.68;6.85;;;;;;;20.77;70.96;101264.41;5002332;28;20038;-73
2023/06/11 05:46:19;;;;;;;13.18;7.57;;;;;;;20.94;70.53;101267.34;5004498;28;20715;-73
2023/06/11 05:48:47;;;;;;;7.85;6.57;;;;;;;21.09;69.74;101256.50;4985737;28;20568;-73
2023/06/11 05:51:14;;;;;;;12.73;6.35;;;;;;;21.25;70.20;101259.63;5000732;28;20076;-73
2023/06/11 05:53:40;;;;;;;10.68;8.05;;;;;;;21.37;70.64;101266.63;5004801;28;20041;-73
2023/06/11 05:56:06;;;;;;;11.18;7.00;;;;;;;21.46;69.52;101264.53;5003454;28;20026;-73
2023/06/11 05:58:35;;;;;;;12.57;6.95;;;;;;;21.71;68.12;101264.50;5002591;28;20045;-73
2023/06/11 06:01:03;;;;;;;12.32;6.97;;;;;;;21.89;68.00;101261.06;4997360;28;20030;-73
2023/06/11 06:03:35;;;;;;;8.48;6.65;;;;;;;22.05;67.47;101264.94;4994256;28;20108;-73
2023/06/11 06:06:09;;;;;;;11.27;7.20;;;;;;;;;;4990331;28;20037;-73
2023/06/11 06:08:35;;;;;;;12.75;6.88;;;;;;;22.44;65.00;101262.06;4989919;28;20573;-73
2023/06/11 06:11:01;;;;;;;11.98;8.05;;;;;;;22.62;64.45;101263.84;5003028;28;20072;-73
2023/06/11 06:13:27;;;;;;;9.88;6.40;;;;;;;22.79;62.70;101267.44;4988965;28;20042;-73
2023/06/11 06:15:55;;;;;;;7.63;6.72;;;;;;;22.83;63.27;101267.81;5003026;28;20022;-73
2023/06/11 06:18:25;;;;;;;11.45;6.78;;;;;;;22.98;62.77;101267.38;5002430;28;20038;-72
2023/06/11 06:20:50;;;;;;;10.93;6.97;;;;;;;23.01;62.66;101272.22;4984763;28;20396;-72
2023/06/11 06:23:16;;;;;;;7.88;6.55;;;;;;;23.00;61.96;101275.88;4999975;28;20057;-73
2023/06/11 06:25:51;;;;;;;9.32;6.18;;;;;;;23.26;61.76;101280.81;4971746;28;20068;-74
2023/06/11 06:28:17;;;;;;;7.80;6.57;;;;;;;23.54;60.07;101278.50;4980624;28;20042;-73
2023/06/11 06:30:43;;;;;;;12.02;6.80;;;;;;;23.55;59.08;101280.13;4978643;28;20037;-73
2023/06/11 06:33:10;;;;;;;10.32;6.80;;;;;;;23.82;58.41;101280.47;4984771;28;20031;-74
2023/06/11 06:35:35;;;;;;;12.15;7.05;;;;;;;24.03;58.10;101279.03;4999810;28;20088;-73
2023/06/11 06:38:02;;;;;;;9.82;6.22;;;;;;;24.29;56.74;101280.34;5000243;28;20092;-74
2023/06/11 06:40:29;;;;;;;9.52;7.50;;;;;;;24.20;56.28;101281.75;4980164;28;20029;-74
2023/06/11 06:42:55;;;;;;;8.43;6.90;;;;;;;24.33;55.64;101284.13;4966669;28;20034;-73
2023/06/11 06:45:28;;;;;;;7.93;6.43;;;;;;;24.48;55.36;101284.41;5000261;28;20042;-73
2023/06/11 06:47:55;;;;;;;9.23;6.43;;;;;;;24.55;54.96;101289.59;5004426;28;20399;-73
2023/06/11 06:50:21;;;;;;;8.23;6.55;;;;;;;24.67;54.52;101287.69;4993258;28;20046;-73
2023/06/11 06:52:47;;;;;;;13.18;6.32;;;;;;;25.01;53.86;101282.41;5005861;28;21963;-73
2023/06/11 06:55:12;;;;;;;10.23;6.72;;;;;;;25.11;53.21;101273.84;5004279;28;20103;-74
2023/06/11 06:57:38;;;;;;;10.40;6.40;;;;;;;25.62;53.09;101284.44;5005011;28;20096;-73
2023/06/11 07:00:07;;;;;;;10.63;6.35;;;;;;;25.69;52.35;101276.28;4994927;28;20046;-73
2023/06/11 07:02:33;;;;;;;10.93;6.50;;;;;;;25.82;51.10;101278.56;4979996;28;20031;-73
2023/06/11 07:05:00;;;;;;;9.30;6.07;;;;;;;25.64;51.09;101279.69;4983403;28;20046;-73
2023/06/11 07:07:26;;;;;;;10.13;6.03;;;;;;;25.94;50.29;101286.47;4995824;28;20125;-73
2023/06/11 07:09:55;;;;;;;7.57;5.80;;;;;;;25.83;50.09;101283.63;4997914;28;20046;-73
2023/06/11 07:12:21;;;;;;;18.13;6.50;;;;;;;26.07;50.44;101291.41;4988650;28;20607;-74
2023/06/11 07:14:47;;;;;;;8.07;5.82;;;;;;;26.14;49.43;101281.38;4985573;28;20542;-73
2023/06/11 07:17:12;;;;;;;6.97;5.45;;;;;;;26.28;48.59;101288.97;5017884;28;20045;-73
2023/06/11 07:19:38;;;;;;;11.55;5.80;;;;;;;26.38;48.82;101289.06;5001329;28;20052;-73
2023/06/11 07:22:05;;;;;;;12.90;5.88;;;;;;;26.76;48.71;101285.47;5005036;28;20042;-73
2023/06/11 07:24:35;;;;;;;15.02;6.65;;;;;;;26.57;47.57;101294.84;4998641;28;20148;-73
2023/06/11 07:27:00;;;;;;;13.93;6.13;;;;;;;26.65;47.73;101285.63;5001652;28;20110;-73
2023/06/11 07:29:27;;;;;;;7.72;4.78;;;;;;;26.67;47.81;101289.63;5000705;28;20160;-72
2023/06/11 07:31:52;;;;;;;9.10;5.40;;;;;;;26.66;47.87;101290.72;4987717;28;20527;-72
2023/06/11 07:34:19;;;;;;;6.88;5.35;;;;;;;26.90;47.62;101285.88;4997030;28;20038;-72
2023/06/11 07:36:45;;;;;;;9.73;6.05;;;;;;;27.48;46.20;101282.56;4987460;28;20030;-73
2023/06/11 07:39:11;;;;;;;7.10;5.32;;;;;;;27.40;46.08;101283.06;4982083;28;20054;-74
2023/06/11 07:41:37;;;;;;;7.38;5.78;;;;;;;27.72;45.41;101285.63;4981899;28;20109;-73
2023/06/11 07:44:04;;;;;;;6.47;5.25;;;;;;;27.83;44.47;101286.47;4989760;28;20042;-74
2023/06/11 07:46:31;;;;;;;9.63;5.32;;;;;;;27.89;44.16;101288.91;4999875;28;20443;-74
2023/06/11 07:48:56;;;;;;;6.50;4.88;;;;;;;28.13;44.82;101281.28;5000456;28;20057;-74
2023/06/11 07:51:23;;;;;;;6.13;4.47;;;;;;;28.49;43.87;101284.00;5006156;28;20048;-73
2023/06/11 07:53:56;;;;;;;6.90;5.15;;;;;;;28.39;43.07;101291.19;4998588;28;20121;-73
2023/06/11 07:56:22;;;;;;;6.75;4.90;;;;;;;28.38;43.37;101277.06;4987417;28;20046;-73
2023/06/11 07:58:48;;;;;;;7.25;4.95;;;;;;;28.73;43.47;101276.34;4986140;28;20053;-73
2023/06/11 08:01:13;;;;;;;7.63;4.97;;;;;;;29.03;42.47;101279.28;4986669;28;20050;-74
2023/06/11 08:03:39;;;;;;;8.20;4.70;;;;;;;28.85;42.31;101276.06;4985738;28;20047;-74
2023/06/11 08:06:05;;;;;;;5.63;4.43;;;;;;;29.14;41.82;101277.41;4985532;28;20050;-73
2023/06/11 08:08:31;;;;;;;7.20;5.20;;;;;;;29.13;42.16;101276.59;4986092;28;20077;-73
2023/06/11 08:10:56;;;;;;;11.20;5.00;;;;;;;28.98;41.66;101274.72;4987606;28;20076;-73
2023/06/11 08:13:22;;;;;;;5.53;4.53;;;;;;;28.75;42.39;101273.41;4985819;28;20116;-73
2023/06/11 08:15:47;;;;;;;9.52;4.85;;;;;;;28.59;43.22;101287.78;4987961;28;20026;-74
2023/06/11 08:18:13;;;;;;;10.50;5.00;;;;;;;28.52;42.88;101288.84;4986308;28;20030;-73
2023/06/11 08:20:38;;;;;;;8.07;5.05;;;;;;;28.59;43.02;101283.25;4987674;28;20477;-73
2023/06/11 08:23:04;;;;;;;6.82;4.97;;;;;;;28.99;42.79;101288.84;4987287;28;20038;-74
2023/06/11 08:25:31;;;;;;;6.30;4.68;;;;;;;29.43;42.40;101286.44;5005937;28;20041;-74
2023/06/11 08:27:57;;;;;;;7.53;4.85;;;;;;;29.45;41.99;101283.47;5005341;28;20103;-74
2023/06/11 08:30:22;;;;;;;6.18;4.95;;;;;;;29.40;42.30;101281.63;5005426;28;20675;-73
2023/06/11 08:32:54;;;;;;;9.82;4.95;;;;;;;29.87;41.18;101271.59;5006992;28;20034;-73
2023/06/11 08:35:20;;;;;;;9.10;4.88;;;;;;;30.00;40.15;101270.22;5002260;28;20127;-74
2023/06/11 08:37:45;;;;;;;8.65;4.80;;;;;;;30.20;40.54;101274.66;5006970;28;20709;-74
2023/06/11 08:40:12;;;;;;;9.32;5.00;;;;;;;30.57;40.15;101274.16;5000341;28;20062;-74
2023/06/11 08:42:38;;;;;;;8.52;5.18;;;;;;;30.42;39.54;101274.25;4994180;28;20022;-73
2023/06/11 08:45:04;;;;;;;8.30;4.90;;;;;;;30.37;39.63;101279.66;4986885;28;20097;-74
2023/06/11 08:47:33;;;;;;;10.65;5.30;;;;;;;30.23;39.70;101280.25;4987884;28;20056;-73
2023/06/11 08:49:59;;;;;;;17.90;5.55;;;;;;;29.56;39.17;101281.59;4985040;28;20056;-73
2023/06/11 08:52:26;;;;;;;9.50;4.70;;;;;;;29.47;40.48;101281.34;4989743;28;20132;-74
2023/06/11 08:54:52;;;;;;;13.32;5.20;;;;;;;29.89;40.36;101277.47;5007190;28;20052;-74
2023/06/11 08:57:18;;;;;;;7.18;4.65;;;;;;;29.99;40.12;101284.63;5003903;28;20458;-74
2023/06/11 08:59:44;;;;;;;12.43;4.47;;;;;;;29.60;40.08;101272.75;5005267;28;20381;-73
2023/06/11 09:02:13;;;;;;;6.68;4.63;;;;;;;29.73;40.49;101274.06;5004901;28;20084;-74
2023/06/11 09:04:43;;;;;;;5.65;4.30;;;;;;;29.63;40.59;101280.22;4986669;28;20050;-74
2023/06/11 09:07:09;;;;;;;6.60;5.10;;;;;;;30.25;39.38;101278.09;5005916;28;20053;-74
2023/06/11 09:09:35;;;;;;;7.38;4.18;;;;;;;30.35;38.07;101269.22;4992328;28;20043;-74
2023/06/11 09:12:08;;;;;;;4.90;3.97;;;;;;;30.04;38.33;101273.91;4981826;28;20504;-74
2023/06/11 09:14:33;;;;;;;4.60;3.78;;;;;;;29.89;39.74;101267.59;4975034;28;20047;-74
2023/06/11 09:16:59;;;;;;;10.70;4.13;;;;;;;30.00;38.86;101276.34;4981258;28;20085;-74
2023/06/11 09:19:24;;;;;;;12.45;4.78;;;;;;;29.69;39.74;101273.78;4976778;28;20482;-74
2023/06/11 09:21:55;;;;;;;7.80;4.75;;;;;;;29.51;39.94;101263.69;4987467;28;20038;-74
2023/06/11 09:24:21;;;;;;;7.93;4.22;;;;;;;29.72;39.60;101268.97;4986279;28;20057;-73
2023/06/11 09:26:56;;;;;;;5.72;4.15;;;;;;;29.90;39.54;101257.69;4989272;28;20061;-74
2023/06/11 09:29:23;;;;;;;6.53;4.30;;;;;;;29.86;39.14;101259.31;4989420;28;20092;-74
2023/06/11 09:32:01;;;;;;;6.53;4.60;;;;;;;29.51;39.51;101261.81;4991485;28;20497;-74
2023/06/11 09:34:30;;;;;;;8.48;4.32;;;;;;;29.84;39.90;101262.28;5001082;28;20041;-74
2023/06/11 09:36:55;;;;;;;5.78;4.05;;;;;;;30.28;39.18;101258.78;5008126;28;20033;-75
2023/06/11 09:39:21;;;;;;;9.40;4.72;;;;;;;30.35;38.68;101265.75;5004176;28;20041;-75
2023/06/11 09:41:51;;;;;;;6.15;3.65;;;;;;;30.50;38.32;101262.97;5011089;28;20433;-75
2023/06/11 09:44:19;;;;;;;5.90;4.28;;;;;;;30.88;38.25;101254.38;4998515;28;20050;-75
2023/06/11 09:46:48;;;;;;;8.00;3.97;;;;;;;31.23;37.87;101270.09;4987694;28;20034;-75
2023/06/11 09:49:15;;;;;;;11.63;4.43;;;;;;;30.98;37.40;101267.69;4996758;28;20077;-75
2023/06/11 09:51:42;;;;;;;8.85;4.13;;;;;;;30.60;37.77;101264.78;5008179;28;20037;-74
2023/06/11 09:54:08;;;;;;;9.98;4.05;;;;;;;31.03;37.30;101265.75;4998370;28;20417;-75
2023/06/11 09:56:35;;;;;;;7.75;4.22;;;;;;;30.67;37.54;101260.69;4993311;28;20034;-74
2023/06/11 09:59:05;;;;;;;6.47;3.88;;;;;;;31.00;37.31;101263.63;4996254;28;20649;-74
2023/06/11 10:01:31;;;;;;;7.72;3.83;;;;;;;31.16;37.54;101266.97;4989466;28;20034;-75
2023/06/11 10:04:00;;;;;;;6.85;4.30;;;;;;;31.38;36.57;101250.41;4990526;28;20053;-73
2023/06/11 10:06:40;;;;;;;6.60;4.03;;;;;;;31.62;37.17;101261.09;4988765;28;20026;-76
2023/06/11 10:09:11;;;;;;;8.23;4.00;;;;;;;31.90;35.60;101252.47;4999952;28;20046;-75
2023/06/11 10:11:38;;;;;;;6.38;3.47;;;;;;;31.72;35.55;101254.03;4985317;28;20026;-76
2023/06/11 10:14:05;;;;;;;9.05;4.30;;;;;;;31.41;34.42;101260.53;4992368;28;20406;-75
2023/06/11 10:16:34;;;;;;;5.05;3.40;;;;;;;31.10;34.63;101268.09;5007740;28;20117;-75
2023/06/11 10:19:07;;;;;;;6.93;3.65;;;;;;;31.30;35.25;101261.72;4991316;28;20054;-74
2023/06/11 10:21:36;;;;;;;7.22;3.88;;;;;;;31.63;36.05;101257.34;4987402;28;20115;-75
2023/06/11 10:24:02;;;;;;;7.68;3.55;;;;;;;32.13;35.18;101261.53;4988280;28;20074;-75
2023/06/11 10:26:35;;;;;;;13.77;4.00;;;;;;;31.59;34.60;101253.66;4972922;28;20071;-75
2023/06/11 10:29:02;;;;;;;6.15;3.63;;;;;;;31.71;33.74;101257.81;4988299;28;20118;-75
2023/06/11 10:31:29;;;;;;;7.25;3.67;;;;;;;31.23;35.21;101253.22;4990596;28;20106;-75
2023/06/11 10:34:05;;;;;;;5.55;4.03;;;;;;;30.97;35.33;101256.19;4996555;28;20497;-75
2023/06/11 10:36:40;;;;;;;6.78;4.25;;;;;;;31.17;34.71;101257.03;5008559;28;20683;-76
2023/06/11 10:39:20;;;;;;;5.43;3.60;;;;;;;31.21;35.04;101260.75;4987517;28;20033;-75
2023/06/11 10:41:45;;;;;;;5.13;3.70;;;;;;;31.47;35.06;101255.16;5006989;28;20083;-75
2023/06/11 10:44:14;;;;;;;4.00;3.30;;;;;;;31.77;35.00;101243.25;5006766;28;20046;-75
2023/06/11 10:46:50;;;;;;;6.40;3.90;;;;;;;31.56;34.56;101253.44;5009563;28;20549;-75
2023/06/11 10:49:17;;;;;;;5.82;3.75;;;;;;;31.61;33.43;101240.78;5008121;28;20476;-74
2023/06/11 10:51:43;;;;;;;10.77;3.80;;;;;;;31.58;34.84;101245.91;5009409;28;20453;-75
2023/06/11 10:54:35;;;;;;;8.55;3.70;;;;;;;31.78;33.98;101242.97;5008685;28;20030;-75
2023/06/11 10:57:01;;;;;;;7.53;3.60;;;;;;;31.41;34.60;101240.97;5007870;28;20049;-75
2023/06/11 10:59:34;;;;;;;5.22;3.40;;;;;;;31.61;34.33;101235.41;4988621;28;20121;-76
2023/06/11 11:02:00;;;;;;;6.28;4.13;;;;;;;31.55;32.62;101244.59;4989352;28;20038;-75
2023/06/11 11:04:26;;;;;;;7.47;3.95;;;;;;;31.53;32.93;101238.75;4985828;28;20422;-74
2023/06/11 11:07:03;;;;;;;7.05;3.50;;;;;;;31.43;32.75;101233.47;4986193;28;20031;-75
2023/06/11 11:09:29;;;;;;;10.65;3.40;;;;;;;31.25;31.25;101248.41;4969232;28;20098;-74
2023/06/11 11:11:58;;;;;;;11.90;4.40;;;;;;;31.16;31.31;101250.09;4988265;28;20034;-73
2023/06/11 11:14:24;;;;;;;8.15;4.25;;;;;;;31.20;30.86;101251.91;4988030;28;20867;-75
2023/06/11 11:16:50;;;;;;;5.13;3.22;;;;;;;31.44;31.89;101241.22;4988254;28;20053;-75
2023/06/11 11:19:15;;;;;;;5.28;3.70;;;;;;;31.88;31.69;101247.38;4998035;28;20046;-75
2023/06/11 11:21:50;;;;;;;5.72;3.42;;;;;;;31.45;31.13;101233.97;5007368;28;20029;-74
2023/06/11 11:24:16;;;;;;;9.32;3.85;;;;;;;31.36;30.96;101233.81;4994370;28;20038;-74